createdAt,value
2018-05-11T00:01:55.470Z,20.30
2018-05-11T00:04:24.615Z,19.70
2018-05-11T00:06:52.952Z,19.53
2018-05-11T00:09:22.071Z,20.37
2018-05-11T00:11:50.450Z,21.20
2018-05-11T00:14:18.813Z,21.17
2018-05-11T00:16:47.142Z,19.13
2018-05-11T00:19:15.471Z,19.70
2018-05-11T00:21:44.688Z,19.27
2018-05-11T00:24:13.088Z,21.73
2018-05-11T00:26:41.561Z,20.80
2018-05-11T00:29:09.987Z,19.13
2018-05-11T00:31:38.327Z,20.20
2018-05-11T00:34:06.625Z,20.30
2018-05-11T00:36:34.986Z,18.70
2018-05-11T00:39:03.302Z,20.30
2018-05-11T00:41:31.757Z,20.07
2018-05-11T00:44:00.174Z,20.07
2018-05-11T00:46:29.295Z,19.57
2018-05-11T00:48:57.618Z,18.47
2018-05-11T00:51:25.933Z,20.87
2018-05-11T00:53:55.047Z,20.23
2018-05-11T00:56:23.854Z,20.77
2018-05-11T00:58:52.288Z,18.13
2018-05-11T01:01:20.747Z,19.17
2018-05-11T01:03:49.072Z,20.33
2018-05-11T01:06:17.393Z,20.43
2018-05-11T01:08:45.833Z,19.03
2018-05-11T01:11:14.178Z,20.37
2018-05-11T01:13:42.534Z,18.23
2018-05-11T01:16:10.895Z,19.97
2018-05-11T01:18:39.225Z,21.20
2018-05-11T01:21:08.349Z,18.77
2018-05-11T01:23:36.652Z,21.80
2018-05-11T01:26:05.122Z,20.30
2018-05-11T01:28:33.553Z,21.70
2018-05-11T01:31:01.946Z,21.13
2018-05-11T01:33:31.161Z,20.97
2018-05-11T01:36:00.473Z,20.97
2018-05-11T01:38:28.836Z,20.00
2018-05-11T01:40:57.960Z,19.33
2018-05-11T01:43:26.412Z,20.43
2018-05-11T01:45:56.128Z,21.73
2018-05-11T01:48:24.610Z,19.20
2018-05-11T01:50:53.242Z,20.60
2018-05-11T01:53:21.583Z,18.97
2018-05-11T01:55:51.226Z,17.03
2018-05-11T01:58:19.759Z,18.47
2018-05-11T02:00:48.902Z,17.77
2018-05-11T02:03:17.305Z,15.87
2018-05-11T02:05:45.728Z,17.27
2018-05-11T02:08:14.847Z,16.20
2018-05-11T02:10:43.229Z,16.53
2018-05-11T02:13:11.650Z,18.20
2018-05-11T02:15:40.024Z,17.10
2018-05-11T02:18:08.495Z,17.10
2018-05-11T02:20:36.874Z,17.40
2018-05-11T02:23:05.967Z,16.70
2018-05-11T02:25:34.356Z,15.57
2018-05-11T02:28:03.445Z,17.80
2018-05-11T02:30:31.877Z,15.97
2018-05-11T02:33:01.028Z,18.20
2018-05-11T02:35:29.380Z,16.87
2018-05-11T02:37:57.757Z,16.23
2018-05-11T02:40:26.226Z,15.40
2018-05-11T02:42:54.588Z,18.23
2018-05-11T02:45:23.008Z,16.13
2018-05-11T02:47:51.442Z,17.03
2018-05-11T02:50:20.544Z,16.70
2018-05-11T02:52:49.827Z,16.37
2018-05-11T02:55:18.225Z,16.13
2018-05-11T02:57:47.381Z,15.83
2018-05-11T03:00:36.808Z,14.13
2018-05-11T03:03:05.146Z,15.20
2018-05-11T03:05:34.380Z,16.77
2018-05-11T03:08:02.787Z,15.30
2018-05-11T03:10:31.200Z,14.27
2018-05-11T03:12:59.494Z,14.30
2018-05-11T03:15:28.602Z,13.77
2018-05-11T03:17:56.997Z,14.20
2018-05-11T03:20:26.098Z,12.70
2018-05-11T03:22:54.492Z,13.73
2018-05-11T03:25:22.844Z,15.13
2018-05-11T03:27:51.305Z,14.40
2018-05-11T03:30:19.618Z,12.93
2018-05-11T03:32:47.980Z,13.23
2018-05-11T03:35:18.045Z,12.43
2018-05-11T03:37:46.375Z,13.30
2018-05-11T03:40:15.468Z,12.00
2018-05-11T03:42:45.746Z,13.20
2018-05-11T03:45:14.118Z,12.10
2018-05-11T03:47:42.459Z,13.97
2018-05-11T03:50:11.567Z,13.50
2018-05-11T03:52:40.865Z,13.40
2018-05-11T03:55:09.341Z,13.07
2018-05-11T03:57:38.495Z,13.70
2018-05-11T04:00:06.855Z,14.47
2018-05-11T04:02:47.085Z,13.90
2018-05-11T04:05:27.373Z,15.27
2018-05-11T04:08:07.836Z,14.43
2018-05-11T04:10:36.370Z,14.03
2018-05-11T04:13:04.756Z,15.43
2018-05-11T04:15:33.991Z,15.87
2018-05-11T04:18:02.456Z,16.30
2018-05-11T04:20:31.616Z,16.10
2018-05-11T04:23:00.080Z,15.67
2018-05-11T04:25:28.382Z,16.03
2018-05-11T04:27:56.757Z,15.73
2018-05-11T04:30:25.186Z,15.47
2018-05-11T04:32:53.507Z,14.27
2018-05-11T04:35:21.943Z,14.20
2018-05-11T04:37:50.269Z,15.93
2018-05-11T04:40:18.604Z,14.03
2018-05-11T04:42:47.727Z,18.13
2018-05-11T04:45:16.167Z,14.40
2018-05-11T04:47:45.261Z,13.87
2018-05-11T04:50:13.706Z,13.60
2018-05-11T04:52:42.296Z,14.53
2018-05-11T04:55:10.673Z,15.53
2018-05-11T04:57:39.138Z,14.17
2018-05-11T05:00:07.504Z,13.53
2018-05-11T05:02:35.917Z,12.80
2018-05-11T05:05:04.266Z,13.63
2018-05-11T05:07:32.609Z,11.60
2018-05-11T05:10:01.067Z,13.10
2018-05-11T05:12:30.416Z,12.57
2018-05-11T05:14:58.939Z,12.73
2018-05-11T05:17:27.253Z,13.50
2018-05-11T05:19:55.595Z,13.23
2018-05-11T05:22:23.925Z,13.10
2018-05-11T05:24:52.275Z,12.40
2018-05-11T05:27:21.359Z,13.90
2018-05-11T05:29:50.524Z,14.27
2018-05-11T05:32:18.943Z,14.53
2018-05-11T05:34:48.048Z,13.07
2018-05-11T05:37:17.134Z,11.43
2018-05-11T05:39:46.523Z,12.50
2018-05-11T05:42:14.851Z,11.70
2018-05-11T05:44:43.279Z,12.07
2018-05-11T05:47:11.598Z,12.67
2018-05-11T05:49:39.961Z,11.80
2018-05-11T05:52:08.449Z,11.10
2018-05-11T05:54:36.863Z,12.53
2018-05-11T05:57:05.306Z,11.00
2018-05-11T05:59:33.752Z,11.00
2018-05-11T06:02:02.280Z,10.67
2018-05-11T06:04:30.756Z,11.00
2018-05-11T06:06:59.241Z,9.90
2018-05-11T06:09:27.612Z,9.87
2018-05-11T06:11:56.785Z,10.57
2018-05-11T06:14:26.318Z,10.17
2018-05-11T06:16:55.407Z,10.50
2018-05-11T06:19:24.486Z,11.93
2018-05-11T06:21:53.594Z,10.93
2018-05-11T06:24:22.677Z,12.13
2018-05-11T06:26:51.117Z,11.00
2018-05-11T06:29:19.598Z,12.37
2018-05-11T06:31:47.947Z,12.60
2018-05-11T06:34:17.582Z,13.07
2018-05-11T06:36:45.996Z,12.57
2018-05-11T06:39:15.169Z,13.93
2018-05-11T06:41:43.548Z,10.80
2018-05-11T06:44:11.953Z,12.30
2018-05-11T06:46:41.247Z,12.30
2018-05-11T06:49:09.625Z,10.90
2018-05-11T06:51:38.081Z,11.60
2018-05-11T06:54:06.624Z,11.80
2018-05-11T06:56:35.816Z,12.80
2018-05-11T06:59:04.463Z,11.67
2018-05-11T07:01:32.972Z,11.80
2018-05-11T07:04:02.126Z,11.37
2018-05-11T07:06:30.624Z,11.73
2018-05-11T07:08:58.993Z,11.63
2018-05-11T07:11:27.520Z,10.50
2018-05-11T07:13:56.514Z,10.83
2018-05-11T07:16:24.909Z,10.30
2018-05-11T07:18:54.307Z,12.07
2018-05-11T07:21:23.388Z,11.47
2018-05-11T07:23:51.753Z,11.97
2018-05-11T07:26:20.406Z,10.47
2018-05-11T07:28:48.905Z,11.07
2018-05-11T07:31:17.372Z,10.47
2018-05-11T07:33:45.731Z,10.80
2018-05-11T07:36:14.093Z,10.27
2018-05-11T07:38:43.238Z,11.27
2018-05-11T07:41:11.730Z,11.27
2018-05-11T07:43:40.163Z,10.40
2018-05-11T07:46:09.786Z,11.10
2018-05-11T07:48:38.251Z,11.13
2018-05-11T07:51:07.412Z,9.30
2018-05-11T07:53:35.742Z,8.50
2018-05-11T07:56:04.089Z,7.70
2018-05-11T07:58:32.396Z,7.63
2018-05-11T08:01:01.504Z,8.83
2018-05-11T08:03:29.999Z,7.43
2018-05-11T08:05:58.383Z,7.60
2018-05-11T08:08:27.664Z,7.20
2018-05-11T08:10:56.254Z,8.67
2018-05-11T08:13:24.586Z,7.10
2018-05-11T08:15:52.895Z,7.33
2018-05-11T08:18:22.032Z,7.77
2018-05-11T08:20:50.396Z,8.53
2018-05-11T08:23:18.825Z,9.10
2018-05-11T08:25:47.162Z,7.40
2018-05-11T08:28:15.680Z,7.20
2018-05-11T08:30:44.807Z,8.40
2018-05-11T08:33:13.910Z,8.27
2018-05-11T08:35:42.485Z,8.40
2018-05-11T08:38:10.873Z,8.67
2018-05-11T08:40:39.264Z,7.93
2018-05-11T08:43:07.699Z,7.50
2018-05-11T08:45:36.092Z,7.47
2018-05-11T08:48:05.232Z,7.20
2018-05-11T08:50:33.607Z,7.80
2018-05-11T08:53:02.127Z,6.97
2018-05-11T08:55:30.830Z,5.83
2018-05-11T08:57:59.964Z,7.57
2018-05-11T09:00:28.464Z,7.73
2018-05-11T09:02:57.803Z,6.30
2018-05-11T09:05:26.057Z,7.40
2018-05-11T09:07:54.489Z,6.53
2018-05-11T09:10:23.610Z,7.47
2018-05-11T09:12:52.052Z,6.53
2018-05-11T09:15:20.379Z,6.30
2018-05-11T09:17:48.727Z,4.70
2018-05-11T09:20:17.426Z,4.67
2018-05-11T09:22:45.803Z,5.20
2018-05-11T09:25:14.230Z,5.43
2018-05-11T09:27:42.583Z,5.97
2018-05-11T09:30:10.916Z,5.80
2018-05-11T09:32:39.292Z,5.83
2018-05-11T09:35:08.476Z,4.97
2018-05-11T09:37:36.960Z,5.33
2018-05-11T09:40:05.286Z,5.70
2018-05-11T09:42:33.699Z,5.93
2018-05-11T09:45:03.052Z,6.10
2018-05-11T09:47:31.444Z,5.27
2018-05-11T09:49:59.783Z,5.30
2018-05-11T09:52:28.121Z,7.03
2018-05-11T09:54:56.474Z,6.73
2018-05-11T09:57:24.917Z,7.30
2018-05-11T09:59:53.280Z,6.80
2018-05-11T10:02:22.566Z,6.30
2018-05-11T10:04:50.923Z,5.97
2018-05-11T10:07:19.259Z,6.70
2018-05-11T10:09:47.728Z,5.10
2018-05-11T10:12:16.055Z,4.90
2018-05-11T10:14:48.174Z,5.07
2018-05-11T10:17:16.689Z,5.30
2018-05-11T10:19:45.138Z,4.93
2018-05-11T10:22:13.557Z,5.10
2018-05-11T10:24:42.679Z,4.97
2018-05-11T10:27:11.063Z,5.03
2018-05-11T10:29:39.424Z,5.50
2018-05-11T10:32:08.842Z,5.60
2018-05-11T10:34:37.489Z,5.50
2018-05-11T10:37:06.761Z,5.73
2018-05-11T10:39:35.102Z,7.07
2018-05-11T10:42:03.498Z,5.10
2018-05-11T10:44:31.937Z,4.33
2018-05-11T10:47:00.277Z,4.53
2018-05-11T10:49:28.634Z,4.40
2018-05-11T10:51:57.092Z,4.70
2018-05-11T10:54:25.464Z,5.47
2018-05-11T10:56:55.185Z,4.57
2018-05-11T10:59:23.647Z,4.80
2018-05-11T11:01:52.071Z,4.20
2018-05-11T11:04:20.400Z,4.40
2018-05-11T11:06:49.653Z,4.20
2018-05-11T11:09:18.774Z,4.20
2018-05-11T11:11:51.302Z,4.40
2018-05-11T11:14:20.577Z,4.20
2018-05-11T11:16:49.785Z,4.50
2018-05-11T11:19:18.162Z,4.50
2018-05-11T11:21:46.552Z,3.80
2018-05-11T11:24:15.067Z,4.60
2018-05-11T11:26:44.276Z,3.60
2018-05-11T11:29:13.412Z,4.10
2018-05-11T11:31:42.599Z,4.03
2018-05-11T11:34:11.093Z,3.67
2018-05-11T11:36:39.534Z,5.10
2018-05-11T11:39:08.049Z,4.57
2018-05-11T11:41:36.558Z,4.63
2018-05-11T11:44:04.983Z,3.57
2018-05-11T11:46:33.310Z,3.20
2018-05-11T11:49:01.803Z,3.30
2018-05-11T11:51:30.141Z,3.57
2018-05-11T11:53:58.570Z,3.50
2018-05-11T11:56:26.996Z,4.23
2018-05-11T11:58:55.365Z,3.57
2018-05-11T12:01:23.867Z,3.60
2018-05-11T12:03:52.271Z,4.67
2018-05-11T12:06:20.833Z,3.70
2018-05-11T12:08:49.287Z,4.10
2018-05-11T12:11:18.466Z,3.80
2018-05-11T12:13:46.875Z,4.50
2018-05-11T12:16:15.324Z,4.57
2018-05-11T12:18:44.549Z,4.40
2018-05-11T12:21:12.950Z,4.30
2018-05-11T12:23:41.397Z,4.43
2018-05-11T12:26:09.950Z,4.33
2018-05-11T12:28:38.334Z,4.10
2018-05-11T12:31:09.850Z,4.40
2018-05-11T12:33:38.591Z,4.10
2018-05-11T12:36:07.035Z,3.30
2018-05-11T12:38:36.242Z,3.33
2018-05-11T12:41:05.448Z,4.00
2018-05-11T12:43:33.840Z,4.00
2018-05-11T12:46:03.277Z,3.87
2018-05-11T12:48:31.753Z,3.57
2018-05-11T12:51:00.150Z,4.07
2018-05-11T12:53:28.552Z,3.50
2018-05-11T12:55:57.025Z,3.10
2018-05-11T12:58:25.545Z,3.40
2018-05-11T13:00:53.878Z,3.77
2018-05-11T13:03:23.410Z,3.63
2018-05-11T13:05:52.620Z,3.80
2018-05-11T13:08:21.207Z,3.50
2018-05-11T13:10:49.730Z,3.87
2018-05-11T13:13:20.056Z,3.10
2018-05-11T13:15:48.524Z,3.30
2018-05-11T13:18:17.012Z,2.47
2018-05-11T13:20:45.501Z,2.67
2018-05-11T13:23:14.782Z,3.10
2018-05-11T13:25:43.112Z,4.10
2018-05-11T13:28:11.478Z,3.53
2018-05-11T13:30:39.923Z,4.37
2018-05-11T13:33:08.367Z,3.33
2018-05-11T13:35:37.509Z,3.87
2018-05-11T13:38:05.957Z,3.93
2018-05-11T13:40:34.483Z,3.53
2018-05-11T13:43:03.990Z,3.90
2018-05-11T13:45:32.509Z,4.30
2018-05-11T13:48:01.739Z,3.40
2018-05-11T13:50:30.103Z,3.67
2018-05-11T13:52:59.333Z,4.60
2018-05-11T13:55:27.752Z,4.37
2018-05-11T13:57:56.178Z,4.70
2018-05-11T14:00:24.573Z,4.27
2018-05-11T14:02:52.965Z,4.20
2018-05-11T14:05:21.519Z,4.60
2018-05-11T14:07:50.015Z,3.73
2018-05-11T14:10:18.534Z,4.20
2018-05-11T14:12:46.959Z,4.57
2018-05-11T14:15:15.332Z,4.50
2018-05-11T14:17:44.463Z,5.80
2018-05-11T14:20:14.945Z,5.33
2018-05-11T14:22:44.157Z,4.70
2018-05-11T14:25:13.311Z,4.90
2018-05-11T14:27:41.683Z,4.53
2018-05-11T14:30:10.117Z,5.50
2018-05-11T14:32:38.614Z,4.73
2018-05-11T14:35:06.966Z,5.07
2018-05-11T14:37:36.193Z,4.63
2018-05-11T14:40:04.660Z,4.20
2018-05-11T14:42:33.868Z,3.93
2018-05-11T14:45:02.361Z,4.07
2018-05-11T14:47:30.950Z,5.17
2018-05-11T14:49:59.398Z,4.20
2018-05-11T14:52:27.795Z,4.00
2018-05-11T14:54:56.145Z,3.57
2018-05-11T14:57:24.757Z,5.23
2018-05-11T14:59:53.379Z,3.30
2018-05-11T15:02:21.752Z,2.73
2018-05-11T15:04:50.241Z,3.20
2018-05-11T15:07:18.748Z,3.33
2018-05-11T15:09:47.177Z,3.23
2018-05-11T15:12:15.553Z,3.13
2018-05-11T15:14:43.922Z,3.20
2018-05-11T15:17:12.299Z,2.60
2018-05-11T15:19:41.397Z,3.67
2018-05-11T15:22:09.827Z,4.03
2018-05-11T15:24:38.289Z,4.43
2018-05-11T15:27:06.737Z,5.10
2018-05-11T15:29:35.848Z,5.07
2018-05-11T15:32:04.316Z,4.30
2018-05-11T15:34:32.780Z,3.70
2018-05-11T15:37:02.018Z,3.83
2018-05-11T15:39:30.491Z,3.47
2018-05-11T15:41:58.968Z,3.47
2018-05-11T15:44:28.039Z,3.67
2018-05-11T15:46:56.553Z,3.80
2018-05-11T15:49:24.997Z,3.10
2018-05-11T15:51:54.417Z,4.00
2018-05-11T15:54:22.819Z,4.17
2018-05-11T15:56:51.229Z,4.50
2018-05-11T15:59:19.612Z,4.17
2018-05-11T16:01:48.132Z,3.60
2018-05-11T16:04:17.344Z,3.67
2018-05-11T16:06:46.552Z,3.60
2018-05-11T16:09:15.793Z,3.17
2018-05-11T16:11:44.518Z,3.27
2018-05-11T16:14:13.661Z,4.23
2018-05-11T16:16:43.129Z,3.20
2018-05-11T16:19:11.554Z,2.83
2018-05-11T16:21:39.948Z,2.50
2018-05-11T16:24:08.362Z,2.83
2018-05-11T16:26:37.479Z,2.67
2018-05-11T16:29:06.047Z,2.27
2018-05-11T16:31:35.285Z,3.00
2018-05-11T16:34:04.204Z,3.00
2018-05-11T16:36:33.793Z,2.50
2018-05-11T16:39:02.439Z,2.73
2018-05-11T16:41:31.587Z,2.60
2018-05-11T16:44:00.359Z,3.50
2018-05-11T16:46:29.268Z,2.90
2018-05-11T16:48:57.841Z,2.87
2018-05-11T16:51:26.821Z,2.83
2018-05-11T16:53:56.666Z,2.93
2018-05-11T16:56:26.017Z,2.67
2018-05-11T16:58:54.497Z,3.07
2018-05-11T17:01:23.635Z,3.00
2018-05-11T17:03:52.659Z,3.10
2018-05-11T17:06:21.284Z,2.50
2018-05-11T17:08:51.487Z,3.47
2018-05-11T17:11:20.430Z,2.80
2018-05-11T17:13:48.984Z,2.80
2018-05-11T17:16:18.895Z,3.40
2018-05-11T17:18:47.629Z,3.07
2018-05-11T17:21:16.448Z,3.70
2018-05-11T17:23:45.272Z,3.47
2018-05-11T17:26:15.223Z,3.20
2018-05-11T17:28:43.722Z,3.57
2018-05-11T17:31:12.096Z,3.20
2018-05-11T17:33:40.422Z,4.03
2018-05-11T17:36:08.894Z,4.00
2018-05-11T17:38:37.614Z,3.80
2018-05-11T17:41:06.279Z,3.70
2018-05-11T17:43:36.730Z,3.40
2018-05-11T17:46:05.129Z,3.30
2018-05-11T17:48:34.509Z,5.10
2018-05-11T17:51:02.891Z,3.67
2018-05-11T17:53:31.426Z,3.63
2018-05-11T17:56:02.170Z,2.87
2018-05-11T17:58:31.510Z,3.20
2018-05-11T18:01:00.161Z,3.10
2018-05-11T18:03:28.532Z,4.53
2018-05-11T18:05:57.647Z,4.43
2018-05-11T18:08:26.837Z,4.30
2018-05-11T18:10:55.962Z,4.77
2018-05-11T18:13:24.407Z,5.50
2018-05-11T18:15:52.839Z,5.10
2018-05-11T18:18:21.376Z,5.17
2018-05-11T18:20:49.749Z,4.90
2018-05-11T18:23:18.998Z,4.87
2018-05-11T18:25:47.410Z,5.20
2018-05-11T18:28:15.785Z,5.07
2018-05-11T18:30:44.944Z,4.83
2018-05-11T18:33:13.290Z,4.93
2018-05-11T18:35:42.495Z,5.77
2018-05-11T18:38:11.585Z,4.60
2018-05-11T18:40:40.041Z,4.30
2018-05-11T18:43:08.434Z,5.50
2018-05-11T18:45:37.794Z,5.23
2018-05-11T18:48:06.305Z,6.20
2018-05-11T18:50:34.678Z,5.70
2018-05-11T18:53:03.299Z,5.93
2018-05-11T18:55:31.655Z,4.77
2018-05-11T18:58:00.812Z,4.83
2018-05-11T19:00:29.211Z,5.60
2018-05-11T19:02:58.239Z,6.17
2018-05-11T19:05:27.620Z,5.50
2018-05-11T19:07:56.007Z,5.77
2018-05-11T19:10:26.218Z,5.87
2018-05-11T19:12:54.880Z,5.37
2018-05-11T19:15:23.388Z,5.23
2018-05-11T19:17:52.473Z,6.00
2018-05-11T19:20:21.789Z,5.30
2018-05-11T19:22:50.428Z,5.37
2018-05-11T19:25:20.207Z,5.33
2018-05-11T19:27:49.806Z,4.80
2018-05-11T19:30:18.320Z,5.07
2018-05-11T19:32:46.920Z,4.10
2018-05-11T19:35:15.356Z,5.87
2018-05-11T19:37:44.109Z,5.07
2018-05-11T19:40:12.891Z,4.40
2018-05-11T19:42:41.544Z,4.67
2018-05-11T19:45:10.016Z,4.57
2018-05-11T19:47:39.185Z,5.40
2018-05-11T19:50:07.503Z,4.90
2018-05-11T19:52:36.037Z,4.27
2018-05-11T19:55:06.814Z,4.90
2018-05-11T19:57:36.377Z,5.53
2018-05-11T20:00:04.839Z,5.10
2018-05-11T20:02:33.329Z,4.27
2018-05-11T20:05:01.797Z,4.63
2018-05-11T20:07:30.452Z,4.50
2018-05-11T20:09:59.807Z,4.93
2018-05-11T20:12:28.303Z,5.13
2018-05-11T20:14:57.023Z,5.77
2018-05-11T20:17:26.163Z,6.10
2018-05-11T20:19:55.600Z,6.20
2018-05-11T20:22:25.014Z,4.43
2018-05-11T20:24:54.205Z,4.90
2018-05-11T20:27:22.696Z,5.40
2018-05-11T20:29:51.154Z,5.90
2018-05-11T20:32:20.358Z,6.40
2018-05-11T20:34:49.714Z,5.63
2018-05-11T20:37:20.057Z,7.10
2018-05-11T20:39:50.245Z,5.07
2018-05-11T20:42:19.482Z,6.00
2018-05-11T20:44:48.892Z,6.03
2018-05-11T20:47:19.550Z,5.80
2018-05-11T20:49:48.716Z,6.37
2018-05-11T20:52:18.693Z,5.50
2018-05-11T20:54:48.720Z,5.83
2018-05-11T20:57:17.151Z,5.90
2018-05-11T20:59:48.142Z,4.97
2018-05-11T21:02:18.001Z,6.20
2018-05-11T21:04:48.644Z,5.33
2018-05-11T21:07:17.076Z,6.50
2018-05-11T21:09:46.953Z,5.70
2018-05-11T21:12:15.433Z,6.70
2018-05-11T21:14:44.718Z,6.13
2018-05-11T21:17:13.041Z,6.50
2018-05-11T21:19:41.433Z,5.40
2018-05-11T21:22:10.522Z,6.00
2018-05-11T21:24:38.913Z,5.13
2018-05-11T21:27:07.331Z,4.50
2018-05-11T21:29:35.694Z,6.57
2018-05-11T21:32:04.176Z,5.50
2018-05-11T21:34:32.557Z,5.13
2018-05-11T21:37:00.956Z,6.80
2018-05-11T21:39:29.303Z,6.30
2018-05-11T21:41:57.866Z,5.20
2018-05-11T21:44:26.229Z,6.37
2018-05-11T21:46:55.415Z,5.60
2018-05-11T21:49:23.838Z,5.23
2018-05-11T21:51:52.244Z,5.33
2018-05-11T21:54:21.474Z,4.93
2018-05-11T21:56:50.670Z,5.80
2018-05-11T21:59:19.001Z,6.10
2018-05-11T22:01:47.309Z,6.13
2018-05-11T22:04:15.727Z,5.40
2018-05-11T22:06:46.508Z,5.80
2018-05-11T22:09:15.721Z,6.47
2018-05-11T22:11:44.035Z,5.80
2018-05-11T22:14:13.279Z,6.07
2018-05-11T22:16:41.591Z,6.17
2018-05-11T22:19:10.759Z,5.20
2018-05-11T22:21:39.117Z,5.70
2018-05-11T22:24:07.503Z,5.27
2018-05-11T22:26:35.881Z,5.43
2018-05-11T22:29:04.959Z,5.87
2018-05-11T22:31:33.377Z,6.37
2018-05-11T22:34:01.730Z,5.30
2018-05-11T22:36:30.064Z,6.90
2018-05-11T22:38:58.427Z,5.20
2018-05-11T22:41:26.730Z,5.80
2018-05-11T22:43:55.888Z,5.80
2018-05-11T22:46:24.207Z,6.07
2018-05-11T22:48:53.405Z,5.20
2018-05-11T22:51:21.778Z,5.80
2018-05-11T22:53:50.113Z,6.20
2018-05-11T22:56:18.475Z,6.70
2018-05-11T22:58:46.819Z,5.30
2018-05-11T23:01:15.146Z,6.37
2018-05-11T23:03:43.558Z,6.07
2018-05-11T23:06:12.780Z,6.60
2018-05-11T23:08:41.937Z,6.17
2018-05-11T23:11:10.303Z,6.33
2018-05-11T23:13:38.610Z,7.20
2018-05-11T23:16:06.970Z,6.40
2018-05-11T23:18:35.296Z,6.20
2018-05-11T23:21:04.401Z,7.10
2018-05-11T23:23:32.803Z,6.40
2018-05-11T23:26:01.203Z,9.37
2018-05-11T23:28:29.520Z,6.90
2018-05-11T23:30:57.876Z,7.03
2018-05-11T23:33:26.217Z,6.50
2018-05-11T23:35:54.702Z,7.73
2018-05-11T23:38:23.093Z,6.33
2018-05-11T23:40:51.419Z,6.50
2018-05-11T23:43:20.505Z,7.33
2018-05-11T23:45:49.413Z,6.37
2018-05-11T23:48:20.537Z,6.90
2018-05-11T23:50:50.431Z,6.60
2018-05-11T23:53:19.686Z,7.07
2018-05-11T23:55:48.652Z,7.70
2018-05-11T23:58:19.642Z,7.43
